This is the latest recevied weather packets stored in our database for station/object N8HKU-5. If no packets are shown the sender has not sent any weather packets the latest 1 day(s).
| Time | Temp. | Humidity | Pressure | Rain* | Wind** | Luminosity | Snow |
|---|---|---|---|---|---|---|---|
| 1777960954 | 13.89° C | 91% | 998.4 hPa | 0.76 mm | 0 m/s | - | - |
| 1777960354 | 13.89° C | 90% | 998.9 hPa | 1.52 mm | 0 m/s | - | - |
| 1777959754 | 13.89° C | 90% | 998.9 hPa | 2.29 mm | 0 m/s | - | - |
| 1777959154 | 14.44° C | 89% | 998.8 hPa | 2.54 mm | 0 m/s | - | - |
| 1777958554 | 14.44° C | 87% | 998.9 hPa | 2.79 mm | 0 m/s | - | - |
| 1777957954 | 15° C | 86% | 998.3 hPa | 3.56 mm | 0.45 m/s, 277° | - | - |
| 1777957354 | 14.44° C | 89% | 999 hPa | 3.81 mm | 0.45 m/s, 218° | - | - |
| 1777956754 | 13.89° C | 89% | 999.5 hPa | 4.57 mm | 0 m/s | - | - |
| 1777956154 | 13.89° C | 89% | 999.4 hPa | 3.81 mm | 0 m/s | - | - |
| 1777955554 | 14.44° C | 87% | 999.3 hPa | 3.56 mm | 0.45 m/s, 270° | - | - |
| 1777954954 | 15° C | 85% | 1000.2 hPa | 3.05 mm | 1.34 m/s, 267° | - | - |
| 1777954354 | 16.11° C | 83% | 1000 hPa | 2.29 mm | 1.79 m/s, 259° | - | - |
| 1777953754 | 17.78° C | 77% | 999.8 hPa | 1.52 mm | 1.34 m/s, 251° | - | - |
| 1777953154 | 17.78° C | 71% | 999.1 hPa | 0 mm | 0 m/s | - | - |
| 1777952554 | 18.33° C | 70% | 998.7 hPa | 0 mm | 0 m/s | - | - |
| 1777951954 | 18.33° C | 69% | 998.5 hPa | 0 mm | 0 m/s | - | - |
| 1777951354 | 18.33° C | 70% | 998.5 hPa | 0 mm | 0 m/s | - | - |
| 1777950755 | 18.33° C | 69% | 998.5 hPa | 0 mm | 0 m/s | - | - |
| 1777950154 | 18.33° C | 69% | 998.6 hPa | 0 mm | 0 m/s | - | - |
| 1777949554 | 18.33° C | 69% | 998.7 hPa | 0 mm | 0 m/s | - | - |
| 1777948954 | 18.89° C | 68% | 998.8 hPa | 0 mm | 0.45 m/s, 216° | - | - |
| 1777948354 | 18.33° C | 68% | 998.8 hPa | 0 mm | 0.45 m/s, 203° | - | - |
* Rain latest hour (hover to see other rain measurements)
** Current wind speed in m/s (hover to see current wind gust speed)